createdAt,value
2022-11-07T00:00:56.692Z,100159.56
2022-11-07T00:05:58.454Z,100161.47
2022-11-07T00:11:01.828Z,100166.03
2022-11-07T00:16:05.295Z,100168.44
2022-11-07T00:21:08.079Z,100176.16
2022-11-07T00:26:12.389Z,100175.47
2022-11-07T00:31:14.577Z,100180.09
2022-11-07T00:36:17.238Z,100178.91
2022-11-07T00:41:20.342Z,100185.25
2022-11-07T00:46:22.254Z,100190.75
2022-11-07T00:51:25.292Z,100186.84
2022-11-07T00:56:28.430Z,100198.41
2022-11-07T01:01:31.340Z,100200.84
2022-11-07T01:06:34.576Z,100201.09
2022-11-07T01:11:37.830Z,100206.38
2022-11-07T01:16:39.715Z,100209.78
2022-11-07T01:21:42.154Z,100206.38
2022-11-07T01:26:47.881Z,100206.44
2022-11-07T01:31:49.711Z,100209.72
2022-11-07T01:36:51.503Z,100211.41
2022-11-07T01:41:54.649Z,100214.06
2022-11-07T01:46:57.314Z,100222.56
2022-11-07T01:52:00.101Z,100214.59
2022-11-07T01:57:06.032Z,100214.78
2022-11-07T02:02:08.028Z,100206.97
2022-11-07T02:07:11.466Z,100220.16
2022-11-07T02:12:14.781Z,100210.31
2022-11-07T02:17:16.702Z,100217.38
2022-11-07T02:22:24.939Z,100231.78
2022-11-07T02:27:29.572Z,100228.22
2022-11-07T02:32:31.861Z,100225.19
2022-11-07T02:37:35.384Z,100228.97
2022-11-07T02:42:44.844Z,100229.03
2022-11-07T02:47:46.688Z,100220.69
2022-11-07T02:52:48.574Z,100228.41
2022-11-07T02:57:51.710Z,100240.84
2022-11-07T03:02:53.704Z,100231.91
2022-11-07T03:07:55.592Z,100230.91
2022-11-07T03:12:58.711Z,100234.38
2022-11-07T03:18:00.495Z,100228.44
2022-11-07T03:23:02.407Z,100232.00
2022-11-07T03:28:05.994Z,100228.53
2022-11-07T03:33:07.949Z,100242.53
2022-11-07T03:38:09.884Z,100240.72
2022-11-07T03:43:13.193Z,100242.41
2022-11-07T03:48:15.211Z,100238.84
2022-11-07T03:53:22.164Z,100248.47
2022-11-07T03:58:28.113Z,100240.56
2022-11-07T04:03:29.911Z,100248.91
2022-11-07T04:08:31.715Z,100244.66
2022-11-07T04:13:53.362Z,100256.03
2022-11-07T04:18:55.162Z,100256.09
2022-11-07T04:23:56.928Z,100258.84
2022-11-07T04:29:00.061Z,100264.13
2022-11-07T04:34:01.837Z,100270.22
2022-11-07T04:39:03.816Z,100266.41
2022-11-07T04:44:07.059Z,100264.72
2022-11-07T04:49:08.799Z,100269.91
2022-11-07T04:54:12.033Z,100267.19
2022-11-07T04:59:15.189Z,100271.41
2022-11-07T05:04:16.990Z,100280.31
2022-11-07T05:09:18.895Z,100277.75
2022-11-07T05:14:22.057Z,100269.84
2022-11-07T05:19:23.828Z,100266.66
2022-11-07T05:24:25.666Z,100273.03
2022-11-07T05:29:28.764Z,100277.28
2022-11-07T05:34:30.572Z,100283.34
2022-11-07T05:39:32.314Z,100284.31
2022-11-07T05:44:35.425Z,100285.28
2022-11-07T05:49:37.156Z,100286.09
2022-11-07T05:54:38.979Z,100290.31
2022-11-07T05:59:42.059Z,100293.69
2022-11-07T06:04:44.338Z,100293.75
2022-11-07T06:09:46.127Z,100296.38
2022-11-07T06:14:49.258Z,100311.00
2022-11-07T06:19:50.999Z,100311.06
2022-11-07T06:24:52.795Z,100324.03
2022-11-07T06:29:55.983Z,100324.16
2022-11-07T06:34:57.686Z,100328.75
2022-11-07T06:39:59.468Z,100326.00
2022-11-07T06:45:02.491Z,100334.59
2022-11-07T06:50:04.661Z,100339.91
2022-11-07T06:55:07.593Z,100346.00
2022-11-07T07:00:12.399Z,100359.06
2022-11-07T07:05:17.163Z,100366.75
2022-11-07T07:10:21.835Z,100368.88
2022-11-07T07:15:25.060Z,100364.72
2022-11-07T07:20:26.929Z,100370.66
2022-11-07T07:25:28.725Z,100373.78
2022-11-07T07:30:31.890Z,100375.50
2022-11-07T07:35:33.730Z,100369.25
2022-11-07T07:40:35.504Z,100361.13
2022-11-07T07:45:38.607Z,100377.34
2022-11-07T07:50:40.337Z,100372.69
2022-11-07T07:55:42.169Z,100366.94
2022-11-07T08:00:45.355Z,100366.22
2022-11-07T08:05:52.304Z,100365.72
2022-11-07T08:10:56.701Z,100372.69
2022-11-07T08:16:01.740Z,100376.16
2022-11-07T08:21:03.641Z,100376.16
2022-11-07T08:26:05.798Z,100376.44
2022-11-07T08:31:10.083Z,100383.16
2022-11-07T08:36:11.800Z,100367.56
2022-11-07T08:41:17.178Z,100372.59
2022-11-07T08:46:22.709Z,100373.56
2022-11-07T08:51:24.482Z,100380.84
2022-11-07T08:56:26.253Z,100380.72
2022-11-07T09:01:29.504Z,100376.91
2022-11-07T09:06:32.903Z,100375.25
2022-11-07T09:11:34.683Z,100378.34
2022-11-07T09:16:37.736Z,100383.06
2022-11-07T09:21:39.552Z,100383.28
2022-11-07T09:26:41.480Z,100380.22
2022-11-07T09:31:44.547Z,100368.44
2022-11-07T09:36:46.220Z,100386.41
2022-11-07T09:41:53.101Z,100389.91
2022-11-07T09:46:59.184Z,100395.53
2022-11-07T09:52:03.999Z,100394.72
2022-11-07T09:57:05.711Z,100388.28
2022-11-07T10:02:14.431Z,100389.81
2022-11-07T10:07:21.108Z,100390.94
2022-11-07T10:12:31.423Z,100390.91
2022-11-07T10:17:39.309Z,100409.50
2022-11-07T10:22:49.301Z,100419.84
2022-11-07T10:27:52.538Z,100418.69
2022-11-07T10:32:59.829Z,100423.56
2022-11-07T10:38:02.329Z,100421.19
2022-11-07T10:43:05.935Z,100410.38
2022-11-07T10:48:09.097Z,100424.84
2022-11-07T10:53:17.305Z,100420.94
2022-11-07T10:58:20.184Z,100421.31
2022-11-07T11:03:29.050Z,100426.50
2022-11-07T11:08:38.568Z,100421.47
2022-11-07T11:13:40.281Z,100427.81
2022-11-07T11:18:49.785Z,100425.34
2022-11-07T11:23:51.954Z,100421.94
2022-11-07T11:28:55.115Z,100426.59
2022-11-07T11:34:00.601Z,100414.56
2022-11-07T11:39:03.049Z,100417.19
2022-11-07T11:44:06.917Z,100413.56
2022-11-07T11:49:13.361Z,100406.03
2022-11-07T11:54:15.487Z,100405.78
2022-11-07T11:59:34.721Z,100405.03
2022-11-07T12:04:43.439Z,100401.59
2022-11-07T12:09:45.933Z,100390.72
2022-11-07T12:15:03.175Z,100394.38
2022-11-07T12:20:12.717Z,100388.41
2022-11-07T12:25:17.867Z,100397.44
2022-11-07T12:30:22.144Z,100400.28
2022-11-07T12:35:34.985Z,100394.84
2022-11-07T12:40:40.756Z,100397.94
2022-11-07T12:45:48.420Z,100401.34
2022-11-07T12:50:53.180Z,100400.91
2022-11-07T12:55:57.331Z,100392.78
2022-11-07T13:00:59.658Z,100382.59
2022-11-07T13:06:09.864Z,100388.75
2022-11-07T13:11:15.729Z,100387.06
2022-11-07T13:16:23.483Z,100379.69
2022-11-07T13:21:26.513Z,100376.53
2022-11-07T13:26:47.633Z,100374.19
2022-11-07T13:32:05.936Z,100386.78
2022-11-07T13:37:13.318Z,100397.94
2022-11-07T13:42:16.080Z,100390.03
2022-11-07T13:47:21.300Z,100396.84
2022-11-07T13:52:28.176Z,100398.28
2022-11-07T13:57:33.354Z,100403.25
2022-11-07T14:02:35.402Z,100409.16
2022-11-07T14:07:39.679Z,100408.34
2022-11-07T14:12:41.457Z,100417.31
2022-11-07T14:17:43.384Z,100418.09
2022-11-07T14:22:52.884Z,100419.28
2022-11-07T14:27:54.950Z,100425.47
2022-11-07T14:32:57.622Z,100439.38
2022-11-07T14:38:08.124Z,100446.22
2022-11-07T14:43:11.660Z,100440.75
2022-11-07T14:48:14.289Z,100435.69
2022-11-07T14:53:19.975Z,100441.56
2022-11-07T14:58:23.951Z,100441.34
2022-11-07T15:03:30.762Z,100447.69
2022-11-07T15:08:34.552Z,100444.25
2022-11-07T15:13:36.339Z,100449.81
2022-11-07T15:18:39.632Z,100458.09
2022-11-07T15:23:42.785Z,100466.97
2022-11-07T15:28:45.354Z,100460.25
2022-11-07T15:33:47.142Z,100462.25
2022-11-07T15:38:50.518Z,100466.09
2022-11-07T15:43:52.324Z,100465.06
2022-11-07T15:48:54.116Z,100465.63
2022-11-07T15:53:57.313Z,100479.78
2022-11-07T15:58:59.051Z,100472.19
2022-11-07T16:04:00.866Z,100471.41
2022-11-07T16:09:06.485Z,100473.84
2022-11-07T16:14:38.101Z,100487.75
2022-11-07T16:19:33.058Z,100478.41
2022-11-07T16:24:36.289Z,100478.38
2022-11-07T16:29:38.101Z,100476.66
2022-11-07T16:34:39.899Z,100483.16
2022-11-07T16:39:43.070Z,100493.91
2022-11-07T16:44:44.977Z,100491.91
2022-11-07T16:49:49.040Z,100495.91
2022-11-07T16:54:54.115Z,100491.91
2022-11-07T16:59:56.026Z,100480.41
2022-11-07T17:04:58.085Z,100490.81
2022-11-07T17:10:01.329Z,100493.22
2022-11-07T17:15:03.764Z,100490.03
2022-11-07T17:20:07.038Z,100492.91
2022-11-07T17:25:10.459Z,100490.47
2022-11-07T17:30:14.418Z,100498.19
2022-11-07T17:35:31.564Z,100511.41
2022-11-07T17:40:35.537Z,100506.06
2022-11-07T17:45:37.444Z,100517.47
2022-11-07T17:50:39.875Z,100520.84
2022-11-07T17:55:42.982Z,100517.38
2022-11-07T18:00:44.993Z,100517.28
2022-11-07T18:05:47.728Z,100526.09
2022-11-07T18:10:56.341Z,100532.44
2022-11-07T18:15:58.402Z,100537.75
2022-11-07T18:21:00.305Z,100533.38
2022-11-07T18:26:04.156Z,100531.84
2022-11-07T18:31:07.375Z,100533.41
2022-11-07T18:36:11.017Z,100530.72
2022-11-07T18:41:15.317Z,100525.56
2022-11-07T18:46:19.253Z,100526.94
2022-11-07T18:51:21.793Z,100523.53
2022-11-07T18:56:24.921Z,100529.88
2022-11-07T19:01:28.430Z,100533.22
2022-11-07T19:06:30.393Z,100536.66
2022-11-07T19:11:34.071Z,100527.53
2022-11-07T19:16:35.911Z,100533.38
2022-11-07T19:21:41.467Z,100537.72
2022-11-07T19:26:47.032Z,100536.59
2022-11-07T19:31:48.847Z,100535.56
2022-11-07T19:36:50.640Z,100528.69
2022-11-07T19:41:53.794Z,100525.22
2022-11-07T19:46:56.907Z,100529.03
2022-11-07T19:51:58.792Z,100529.53
2022-11-07T19:57:05.074Z,100534.19
2022-11-07T20:02:31.753Z,100537.91
2022-11-07T20:07:30.536Z,100532.19
2022-11-07T20:12:33.734Z,100535.66
2022-11-07T20:17:35.507Z,100536.16
2022-11-07T20:22:37.316Z,100532.28
2022-11-07T20:27:40.541Z,100549.28
2022-11-07T20:32:44.759Z,100553.75
2022-11-07T20:37:46.692Z,100560.63
2022-11-07T20:42:53.588Z,100558.59
2022-11-07T20:47:55.504Z,100560.41
2022-11-07T20:52:59.120Z,100567.00
2022-11-07T20:58:04.358Z,100565.81
2022-11-07T21:03:06.438Z,100568.50
2022-11-07T21:08:08.533Z,100555.94
2022-11-07T21:13:14.483Z,100556.75
2022-11-07T21:18:16.931Z,100564.75
2022-11-07T21:23:19.420Z,100569.19
2022-11-07T21:28:23.012Z,100572.75
2022-11-07T21:33:24.956Z,100572.13
2022-11-07T21:38:26.787Z,100571.53
2022-11-07T21:43:29.994Z,100562.34
2022-11-07T21:48:31.947Z,100550.22
2022-11-07T21:53:37.647Z,100564.88
2022-11-07T21:58:41.457Z,100552.66
2022-11-07T22:04:05.108Z,100553.59
2022-11-07T22:09:05.789Z,100558.09
2022-11-07T22:14:09.374Z,100549.84
2022-11-07T22:19:12.887Z,100560.41
2022-11-07T22:24:15.092Z,100555.41
2022-11-07T22:29:18.637Z,100557.16
2022-11-07T22:34:20.494Z,100550.09
2022-11-07T22:39:22.411Z,100554.72
2022-11-07T22:44:25.810Z,100547.16
2022-11-07T22:49:27.833Z,100549.81
2022-11-07T22:54:29.799Z,100543.81
2022-11-07T22:59:33.098Z,100545.47
2022-11-07T23:04:34.986Z,100547.03
2022-11-07T23:09:37.231Z,100548.59
2022-11-07T23:14:40.502Z,100542.50
2022-11-07T23:19:42.359Z,100553.69
2022-11-07T23:24:46.301Z,100552.00
2022-11-07T23:29:49.516Z,100544.00
2022-11-07T23:34:54.338Z,100548.59
2022-11-07T23:39:56.913Z,100545.88
2022-11-07T23:45:18.677Z,100536.00
2022-11-07T23:50:39.112Z,100538.88
2022-11-07T23:55:40.926Z,100540.59
